Time;durP1;ratioP1;P1;durP2;ratioP2;P2;SDS_P1;SDS_P2;PMS_P1;PMS_P2;Temp;Humidity;BMP_temperature;BMP_pressure;BME280_temperature;BME280_humidity;BME280_pressure;Samples;Min_cycle;Max_cycle;Signal;HPM_P1;HPM_P2
2024/04/02 00:01:30;;;;;;;0.30;0.30;;;;;;;6.51;100.00;98133.94;5051912;28;20600;-58
2024/04/02 00:04:11;;;;;;;0.40;0.40;;;;;;;6.54;100.00;98133.44;5058040;28;20126;-58
2024/04/02 00:06:37;;;;;;;0.40;0.40;;;;;;;6.55;100.00;98138.53;5052459;28;20570;-59
2024/04/02 00:09:04;;;;;;;0.30;0.30;;;;;;;6.52;100.00;98141.69;5049532;28;20044;-59
2024/04/02 00:11:31;;;;;;;0.32;0.32;;;;;;;6.47;100.00;98138.94;5056682;28;20143;-58
2024/04/02 00:13:58;;;;;;;0.40;0.40;;;;;;;6.50;100.00;98143.78;5053762;28;20559;-58
2024/04/02 00:16:24;;;;;;;0.40;0.40;;;;;;;6.51;100.00;98150.69;5049453;28;20091;-58
2024/04/02 00:18:51;;;;;;;0.30;0.30;;;;;;;6.61;100.00;98150.06;5057464;28;20597;-58
2024/04/02 00:21:19;;;;;;;0.40;0.40;;;;;;;6.58;100.00;98151.34;5050136;28;20106;-59
2024/04/02 00:23:49;;;;;;;0.30;0.30;;;;;;;6.42;100.00;98152.97;5055183;28;20044;-59
2024/04/02 00:26:15;;;;;;;0.40;0.40;;;;;;;6.40;100.00;98159.59;5050267;28;20056;-58
2024/04/02 00:28:42;;;;;;;0.40;0.40;;;;;;;6.31;100.00;98167.13;5044327;28;20051;-59
2024/04/02 00:31:13;;;;;;;0.40;0.40;;;;;;;6.36;100.00;98166.41;5050310;28;20052;-59
2024/04/02 00:33:39;;;;;;;0.40;0.40;;;;;;;6.41;100.00;98166.50;5051246;28;20139;-58
2024/04/02 00:36:06;;;;;;;0.30;0.30;;;;;;;6.34;100.00;98165.84;5052194;28;20401;-59
2024/04/02 00:38:35;;;;;;;0.30;0.30;;;;;;;6.26;100.00;98167.88;5050540;28;20052;-59
2024/04/02 00:41:01;;;;;;;0.30;0.30;;;;;;;6.32;100.00;98166.13;5051726;28;20111;-59
2024/04/02 00:43:28;;;;;;;0.40;0.40;;;;;;;6.36;100.00;98159.25;5054323;28;20044;-59
2024/04/02 00:45:54;;;;;;;0.35;0.35;;;;;;;6.22;100.00;98158.75;5058180;28;20032;-58
2024/04/02 00:48:22;;;;;;;0.47;0.47;;;;;;;6.29;100.00;98163.09;5051112;28;20204;-58
2024/04/02 00:50:49;;;;;;;0.40;0.40;;;;;;;6.31;100.00;98161.00;5048079;28;20052;-59
2024/04/02 00:53:16;;;;;;;0.40;0.40;;;;;;;6.30;100.00;98165.53;5048889;28;20567;-59
2024/04/02 00:55:44;;;;;;;0.43;0.43;;;;;;;6.33;100.00;98164.25;5051574;28;20040;-58
2024/04/02 00:58:11;;;;;;;0.28;0.28;;;;;;;6.22;100.00;98180.03;5045165;28;20045;-59
2024/04/02 01:00:37;;;;;;;0.40;0.40;;;;;;;6.16;100.00;98183.66;5054392;28;20132;-59
2024/04/02 01:03:04;;;;;;;0.40;0.40;;;;;;;6.21;100.00;98186.41;5050034;28;20064;-59
2024/04/02 01:05:31;;;;;;;0.30;0.30;;;;;;;6.28;100.00;98186.25;5049101;28;20054;-58
2024/04/02 01:07:58;;;;;;;0.40;0.40;;;;;;;6.38;100.00;98188.28;5049447;28;20037;-58
2024/04/02 01:10:24;;;;;;;0.30;0.30;;;;;;;6.48;100.00;98191.13;5056447;28;20110;-58
2024/04/02 01:12:52;;;;;;;0.30;0.30;;;;;;;6.61;100.00;98198.78;5051997;28;20167;-59
2024/04/02 01:15:22;;;;;;;0.32;0.32;;;;;;;6.66;100.00;98203.38;5053022;28;20132;-59
2024/04/02 01:17:49;;;;;;;0.40;0.40;;;;;;;6.77;100.00;98202.50;5048315;28;20128;-58
2024/04/02 01:20:17;;;;;;;0.30;0.30;;;;;;;6.76;100.00;98202.75;5051908;28;20045;-58
2024/04/02 01:22:44;;;;;;;0.40;0.40;;;;;;;6.68;100.00;98199.44;5043924;28;20646;-58
2024/04/02 01:25:11;;;;;;;0.40;0.40;;;;;;;6.72;100.00;98204.28;5052948;28;20044;-60
2024/04/02 01:27:40;;;;;;;0.30;0.30;;;;;;;6.72;100.00;98209.63;5054479;28;20475;-59
2024/04/02 01:30:07;;;;;;;0.40;0.40;;;;;;;6.65;100.00;98201.78;5045409;28;20052;-59
2024/04/02 01:32:34;;;;;;;0.30;0.30;;;;;;;6.63;100.00;98201.22;5051336;28;20044;-59
2024/04/02 01:35:00;;;;;;;0.30;0.30;;;;;;;6.66;100.00;98201.56;5053352;28;20045;-59
2024/04/02 01:37:28;;;;;;;0.30;0.30;;;;;;;6.63;100.00;98202.00;5049314;28;20154;-58
2024/04/02 01:39:54;;;;;;;0.28;0.28;;;;;;;6.59;100.00;98200.91;5084708;28;20049;-58
2024/04/02 01:42:22;;;;;;;0.30;0.30;;;;;;;6.57;100.00;98195.00;5050278;28;20041;-59
2024/04/02 01:44:51;;;;;;;0.30;0.30;;;;;;;6.70;100.00;98205.31;5052434;28;20102;-59
2024/04/02 01:47:18;;;;;;;0.45;0.45;;;;;;;6.74;100.00;98203.00;5052469;28;20726;-59
2024/04/02 01:49:44;;;;;;;0.30;0.30;;;;;;;6.77;100.00;98207.03;5045770;28;20044;-58
2024/04/02 01:52:11;;;;;;;0.32;0.32;;;;;;;6.78;100.00;98216.63;5052984;28;20036;-59
2024/04/02 01:54:37;;;;;;;0.30;0.30;;;;;;;6.87;100.00;98229.31;5052026;28;20055;-59
2024/04/02 01:57:04;;;;;;;0.30;0.30;;;;;;;6.95;100.00;98222.75;5053969;28;20047;-58
2024/04/02 01:59:30;;;;;;;0.40;0.40;;;;;;;7.00;100.00;98232.69;5051460;28;20247;-58
2024/04/02 02:01:58;;;;;;;0.30;0.30;;;;;;;7.11;100.00;98234.44;5056765;28;20055;-58
2024/04/02 02:04:25;;;;;;;0.30;0.30;;;;;;;7.12;100.00;98236.06;5056383;28;20048;-58
2024/04/02 02:06:52;;;;;;;0.35;0.35;;;;;;;7.21;100.00;98249.78;5054539;28;20045;-58
2024/04/02 02:09:18;;;;;;;0.30;0.30;;;;;;;7.29;100.00;98241.38;5049904;28;20037;-58
2024/04/02 02:11:45;;;;;;;0.40;0.40;;;;;;;7.39;100.00;98235.38;5051924;28;20067;-58
2024/04/02 02:14:12;;;;;;;0.30;0.30;;;;;;;7.39;100.00;98244.19;5052584;28;20150;-58
2024/04/02 02:16:39;;;;;;;0.40;0.40;;;;;;;7.43;100.00;98247.16;5041733;28;20045;-58
2024/04/02 02:19:07;;;;;;;0.30;0.30;;;;;;;7.52;100.00;98251.81;5051929;28;20127;-58
2024/04/02 02:21:33;;;;;;;0.40;0.40;;;;;;;7.50;100.00;98253.94;5050681;28;20059;-58
2024/04/02 02:23:59;;;;;;;0.30;0.30;;;;;;;7.62;100.00;98255.69;5047676;28;20041;-58
2024/04/02 02:26:26;;;;;;;0.30;0.30;;;;;;;7.63;100.00;98262.63;5047605;28;20053;-58
2024/04/02 02:28:52;;;;;;;0.30;0.30;;;;;;;7.63;100.00;98265.28;5055412;28;20098;-58
2024/04/02 02:31:19;;;;;;;0.30;0.30;;;;;;;7.65;100.00;98271.19;5051041;28;20033;-59
2024/04/02 02:33:46;;;;;;;0.40;0.40;;;;;;;7.62;100.00;98264.50;5048396;28;20056;-58
2024/04/02 02:36:14;;;;;;;0.32;0.32;;;;;;;7.73;100.00;98268.09;5053687;28;20102;-58
2024/04/02 02:38:41;;;;;;;0.40;0.40;;;;;;;7.66;100.00;98262.97;5051804;28;20029;-58
2024/04/02 02:41:08;;;;;;;0.25;0.25;;;;;;;7.71;100.00;98270.19;5051567;28;20099;-58
2024/04/02 02:43:34;;;;;;;0.30;0.30;;;;;;;7.79;100.00;98275.13;5052030;28;20119;-58
2024/04/02 02:46:02;;;;;;;0.35;0.35;;;;;;;7.72;100.00;98274.50;5046007;28;20037;-58
2024/04/02 02:48:28;;;;;;;0.30;0.30;;;;;;;7.69;100.00;98267.00;5055086;28;20079;-58
2024/04/02 02:50:55;;;;;;;0.22;0.22;;;;;;;7.57;100.00;98267.91;5047328;28;20552;-58
2024/04/02 02:53:22;;;;;;;0.20;0.20;;;;;;;7.43;100.00;98269.28;5052934;28;20041;-58
2024/04/02 02:55:55;;;;;;;0.30;0.30;;;;;;;7.48;100.00;98273.88;5045051;28;20068;-58
2024/04/02 02:58:21;;;;;;;0.35;0.35;;;;;;;7.38;100.00;98274.56;5054601;28;20045;-58
2024/04/02 03:00:48;;;;;;;0.30;0.30;;;;;;;7.37;100.00;98274.81;5053883;28;20044;-58
2024/04/02 03:03:14;;;;;;;0.32;0.32;;;;;;;7.32;100.00;98273.69;5050764;28;20059;-58
2024/04/02 03:05:42;;;;;;;0.35;0.35;;;;;;;7.32;100.00;98271.00;5056062;28;20036;-58
2024/04/02 03:08:08;;;;;;;0.30;0.30;;;;;;;7.27;100.00;98270.94;5057286;28;20092;-57
2024/04/02 03:10:36;;;;;;;0.20;0.20;;;;;;;7.29;100.00;98284.03;5059864;28;20503;-58
2024/04/02 03:13:02;;;;;;;0.30;0.30;;;;;;;7.31;100.00;98287.25;5054948;28;20048;-58
2024/04/02 03:15:29;;;;;;;0.28;0.28;;;;;;;7.33;100.00;98285.94;5060656;28;20064;-58
2024/04/02 03:17:57;;;;;;;0.30;0.30;;;;;;;7.26;100.00;98281.84;5056659;28;20041;-58
2024/04/02 03:20:24;;;;;;;0.30;0.30;;;;;;;7.31;100.00;98271.25;5059975;28;20045;-57
2024/04/02 03:22:50;;;;;;;0.30;0.30;;;;;;;7.31;100.00;98279.25;5048513;28;20041;-58
2024/04/02 03:25:17;;;;;;;0.30;0.30;;;;;;;7.23;100.00;98285.00;5056758;28;20049;-58
2024/04/02 03:27:44;;;;;;;0.30;0.30;;;;;;;7.16;100.00;98284.34;5052131;28;20543;-58
2024/04/02 03:30:12;;;;;;;0.20;0.20;;;;;;;7.13;100.00;98282.97;5057412;28;20052;-58
2024/04/02 03:32:38;;;;;;;0.30;0.30;;;;;;;7.13;100.00;98290.97;5057261;28;20554;-58
2024/04/02 03:35:05;;;;;;;0.22;0.22;;;;;;;7.19;100.00;98283.84;5056211;28;20159;-58
2024/04/02 03:37:32;;;;;;;0.30;0.30;;;;;;;7.16;100.00;98295.00;5053805;28;20048;-58
2024/04/02 03:39:59;;;;;;;0.30;0.30;;;;;;;7.23;100.00;98299.13;5058274;28;20127;-58
2024/04/02 03:42:26;;;;;;;0.25;0.25;;;;;;;7.24;100.00;98292.75;5056488;28;20056;-58
2024/04/02 03:44:55;;;;;;;0.30;0.30;;;;;;;7.28;100.00;98293.06;5049932;28;20052;-58
2024/04/02 03:47:21;;;;;;;0.30;0.30;;;;;;;7.08;100.00;98291.69;5052610;28;20495;-58
2024/04/02 03:49:48;;;;;;;0.30;0.30;;;;;;;7.17;100.00;98289.44;5054999;28;20041;-58
2024/04/02 03:52:14;;;;;;;0.20;0.20;;;;;;;7.25;100.00;98304.22;5058172;28;20055;-58
2024/04/02 03:54:41;;;;;;;0.40;0.40;;;;;;;7.16;100.00;98287.00;5050420;28;20059;-58
2024/04/02 03:57:07;;;;;;;0.30;0.30;;;;;;;7.05;100.00;98289.53;5055186;28;20476;-57
2024/04/02 03:59:35;;;;;;;0.40;0.40;;;;;;;7.10;100.00;98286.94;5058304;28;20580;-57
2024/04/02 04:02:03;;;;;;;0.40;0.40;;;;;;;7.09;100.00;98301.31;5053509;28;20407;-58
2024/04/02 04:04:30;;;;;;;0.30;0.30;;;;;;;7.13;100.00;98302.44;5055601;28;20052;-57
2024/04/02 04:06:57;;;;;;;0.30;0.30;;;;;;;7.23;100.00;98303.66;5046670;28;20051;-57
2024/04/02 04:09:23;;;;;;;0.35;0.35;;;;;;;7.24;100.00;98310.59;5056137;28;20043;-57
2024/04/02 04:11:50;;;;;;;0.30;0.30;;;;;;;7.28;100.00;98311.72;5055474;28;20082;-58
2024/04/02 04:14:16;;;;;;;0.30;0.30;;;;;;;7.22;100.00;98318.03;5056223;28;20058;-57
2024/04/02 04:16:43;;;;;;;0.35;0.35;;;;;;;7.25;100.00;98320.22;5059926;28;20044;-58
2024/04/02 04:19:11;;;;;;;0.32;0.32;;;;;;;7.31;100.00;98324.56;5056240;28;20611;-61
2024/04/02 04:21:38;;;;;;;0.22;0.22;;;;;;;7.27;100.00;98318.13;5052448;28;20086;-58
2024/04/02 04:24:06;;;;;;;0.40;0.40;;;;;;;7.33;100.00;98320.59;5051646;28;20099;-58
2024/04/02 04:26:34;;;;;;;0.38;0.38;;;;;;;7.34;100.00;98324.91;5049358;28;20074;-58
2024/04/02 04:29:00;;;;;;;0.30;0.30;;;;;;;7.26;100.00;98327.16;5050473;28;20314;-58
2024/04/02 04:31:27;;;;;;;0.30;0.30;;;;;;;7.27;100.00;98328.78;5049431;28;20039;-58
2024/04/02 04:33:52;;;;;;;0.30;0.30;;;;;;;7.23;100.00;98328.44;5058900;28;20090;-58
2024/04/02 04:36:21;;;;;;;0.30;0.30;;;;;;;7.19;100.00;98327.31;5052990;28;20041;-58
2024/04/02 04:38:47;;;;;;;0.30;0.30;;;;;;;7.21;100.00;98333.19;5053838;28;20040;-58
2024/04/02 04:41:14;;;;;;;0.40;0.40;;;;;;;7.15;100.00;98336.03;5046549;28;20049;-58
2024/04/02 04:43:40;;;;;;;0.30;0.30;;;;;;;7.21;100.00;98340.38;5047621;28;20049;-58
2024/04/02 04:46:07;;;;;;;0.30;0.30;;;;;;;7.15;100.00;98326.19;5048815;28;20533;-58
2024/04/02 04:48:34;;;;;;;0.30;0.30;;;;;;;7.26;100.00;98343.13;5052707;28;20045;-58
2024/04/02 04:51:01;;;;;;;0.30;0.30;;;;;;;7.31;100.00;98336.06;5053040;28;20519;-58
2024/04/02 04:53:29;;;;;;;0.40;0.40;;;;;;;7.24;100.00;98339.91;5045680;28;20487;-58
2024/04/02 04:56:00;;;;;;;0.40;0.40;;;;;;;7.26;100.00;98343.97;5048710;28;20049;-58
2024/04/02 04:58:26;;;;;;;0.40;0.40;;;;;;;7.28;100.00;98343.72;5058970;28;20151;-58
2024/04/02 05:00:53;;;;;;;0.40;0.40;;;;;;;7.19;100.00;98353.16;5060543;28;20040;-58
2024/04/02 05:03:19;;;;;;;0.30;0.30;;;;;;;7.23;100.00;98355.09;5048521;28;20048;-58
2024/04/02 05:05:46;;;;;;;0.30;0.30;;;;;;;7.19;100.00;98350.47;5054179;28;20043;-58
2024/04/02 05:08:33;;;;;;;0.30;0.30;;;;;;;7.19;100.00;98358.47;5057526;28;20128;-58
2024/04/02 05:11:00;;;;;;;0.30;0.30;;;;;;;7.24;100.00;98363.88;5052826;28;20410;-58
2024/04/02 05:13:27;;;;;;;0.32;0.32;;;;;;;7.22;100.00;98363.34;5054329;28;20719;-58
2024/04/02 05:15:54;;;;;;;0.40;0.40;;;;;;;7.12;100.00;98364.78;5051612;28;20044;-58
2024/04/02 05:18:20;;;;;;;0.30;0.30;;;;;;;7.09;100.00;98367.94;5048619;28;20123;-58
2024/04/02 05:20:47;;;;;;;0.30;0.30;;;;;;;7.10;100.00;98374.88;5054237;28;20040;-59
2024/04/02 05:23:13;;;;;;;0.40;0.40;;;;;;;7.08;100.00;98374.28;5058466;28;20517;-58
2024/04/02 05:25:42;;;;;;;0.40;0.40;;;;;;;7.15;100.00;98379.47;5051523;28;20182;-58
2024/04/02 05:28:08;;;;;;;0.30;0.30;;;;;;;7.17;100.00;98377.38;5048575;28;20039;-58
2024/04/02 05:30:35;;;;;;;0.40;0.40;;;;;;;7.08;100.00;98387.63;5051980;28;20037;-58
2024/04/02 05:33:01;;;;;;;0.30;0.30;;;;;;;7.10;100.00;98384.72;5050799;28;20044;-58
2024/04/02 05:35:28;;;;;;;0.30;0.30;;;;;;;7.15;100.00;98384.81;5053356;28;20048;-59
2024/04/02 05:37:54;;;;;;;0.30;0.30;;;;;;;7.04;100.00;98388.34;5056215;28;20102;-59
2024/04/02 05:40:22;;;;;;;0.20;0.20;;;;;;;7.07;100.00;98393.22;5057223;28;20041;-58
2024/04/02 05:42:49;;;;;;;0.32;0.32;;;;;;;7.23;100.00;98399.59;5057202;28;20131;-58
2024/04/02 05:45:16;;;;;;;0.32;0.32;;;;;;;7.30;100.00;98393.06;5058122;28;20487;-57
2024/04/02 05:47:43;;;;;;;0.30;0.30;;;;;;;7.43;100.00;98389.25;5056507;28;20041;-57
2024/04/02 05:50:10;;;;;;;0.55;0.55;;;;;;;7.65;100.00;98400.00;5051553;28;20053;-58
2024/04/02 05:52:36;;;;;;;0.50;0.50;;;;;;;8.59;100.00;98407.19;5050360;28;20040;-58
2024/04/02 05:55:03;;;;;;;0.70;0.70;;;;;;;9.04;100.00;98408.75;5051018;28;20045;-58
2024/04/02 05:57:30;;;;;;;0.32;0.32;;;;;;;9.57;100.00;98413.47;5053070;28;20055;-58
2024/04/02 05:59:58;;;;;;;0.22;0.22;;;;;;;8.88;100.00;98414.16;5056161;28;20574;-58
2024/04/02 06:02:24;;;;;;;0.60;0.60;;;;;;;9.49;100.00;98423.59;5059280;28;20124;-58
2024/04/02 06:04:51;;;;;;;0.30;0.30;;;;;;;9.24;100.00;98421.50;5054552;28;20678;-58
2024/04/02 06:07:18;;;;;;;0.20;0.20;;;;;;;8.71;100.00;98433.78;5046496;28;20072;-57
2024/04/02 06:09:45;;;;;;;0.22;0.22;;;;;;;8.67;100.00;98432.66;5045566;28;20076;-58
2024/04/02 06:12:11;;;;;;;0.30;0.30;;;;;;;8.50;100.00;98437.25;5050785;28;20051;-58
2024/04/02 06:14:38;;;;;;;0.30;0.30;;;;;;;8.22;100.00;98425.66;5055003;28;20048;-58
2024/04/02 06:17:06;;;;;;;0.35;0.35;;;;;;;8.40;100.00;98430.72;5046732;28;20041;-58
2024/04/02 06:19:33;;;;;;;0.28;0.28;;;;;;;8.47;100.00;98429.75;5053999;28;20048;-58
2024/04/02 06:21:59;;;;;;;0.65;0.65;;;;;;;11.92;100.00;98429.63;5050302;28;20033;-58
2024/04/02 06:24:26;;;;;;;0.40;0.40;;;;;;;11.89;91.04;98436.34;5052341;28;20043;-58
2024/04/02 06:26:52;;;;;;;0.43;0.43;;;;;;;13.07;86.38;98435.94;5057242;28;20043;-57
2024/04/02 06:29:19;;;;;;;0.38;0.38;;;;;;;13.61;79.14;98442.34;5055341;28;20567;-58
2024/04/02 06:31:45;;;;;;;0.40;0.40;;;;;;;13.75;77.97;98443.28;5054461;28;20127;-58
2024/04/02 06:34:13;;;;;;;0.30;0.30;;;;;;;14.48;74.71;98433.41;5055578;28;20467;-58
2024/04/02 06:36:39;;;;;;;0.20;0.20;;;;;;;13.02;77.17;98442.16;5058955;28;20060;-58
2024/04/02 06:39:07;;;;;;;0.43;0.43;;;;;;;14.20;75.28;98446.66;5051685;28;20139;-58
2024/04/02 06:41:33;;;;;;;0.20;0.20;;;;;;;14.85;71.16;98444.34;5058831;28;20044;-58
2024/04/02 06:44:01;;;;;;;0.30;0.30;;;;;;;16.07;64.23;98456.31;5059506;28;20060;-58
2024/04/02 06:46:27;;;;;;;0.00;0.00;;;;;;;13.20;75.71;98458.72;5057257;28;20048;-58
2024/04/02 06:48:55;;;;;;;0.10;0.10;;;;;;;11.56;87.29;98459.13;5058758;28;20049;-58
2024/04/02 06:51:23;;;;;;;0.10;0.10;;;;;;;10.89;93.24;98456.31;5054368;28;20036;-58
2024/04/02 06:53:50;;;;;;;0.10;0.10;;;;;;;10.26;97.03;98466.97;5053115;28;20073;-57
2024/04/02 06:56:16;;;;;;;0.20;0.20;;;;;;;10.26;98.47;98466.13;5060535;28;20083;-58
2024/04/02 06:58:44;;;;;;;0.20;0.20;;;;;;;10.21;99.68;98471.47;5056374;28;20051;-57
2024/04/02 07:01:10;;;;;;;0.20;0.20;;;;;;;10.02;100.00;98469.22;5057497;28;20045;-57
2024/04/02 07:03:37;;;;;;;0.20;0.20;;;;;;;9.79;100.00;98472.25;5059250;28;20144;-60
2024/04/02 07:06:04;;;;;;;0.40;0.40;;;;;;;11.58;93.52;98473.06;5061747;28;20056;-57
2024/04/02 07:08:32;;;;;;;0.28;0.28;;;;;;;12.45;85.92;98476.50;5054739;28;20044;-57
2024/04/02 07:10:59;;;;;;;0.20;0.20;;;;;;;11.29;91.28;98481.63;5059772;28;20044;-58
2024/04/02 07:13:26;;;;;;;0.60;0.60;;;;;;;12.62;86.42;98480.78;5060639;28;20041;-57
2024/04/02 07:15:52;;;;;;;0.40;0.40;;;;;;;13.44;76.20;98470.44;5060997;28;20411;-58
2024/04/02 07:18:20;;;;;;;0.30;0.30;;;;;;;12.54;76.59;98474.09;5058531;28;20048;-58
2024/04/02 07:20:57;;;;;;;0.30;0.30;;;;;;;12.61;79.20;98479.97;5059325;28;20415;-58
2024/04/02 07:23:23;;;;;;;0.30;0.30;;;;;;;13.11;77.07;98480.84;5053349;28;20041;-58
2024/04/02 07:25:51;;;;;;;0.40;0.40;;;;;;;13.78;74.67;98480.44;5055118;28;20037;-57
2024/04/02 07:28:17;;;;;;;0.20;0.20;;;;;;;12.06;80.69;98468.28;5057512;28;20048;-58
2024/04/02 07:30:44;;;;;;;0.30;0.30;;;;;;;13.13;76.01;98478.69;5058153;28;20048;-58
2024/04/02 07:33:10;;;;;;;0.20;0.20;;;;;;;13.67;72.90;98481.59;5053020;28;20044;-58
2024/04/02 07:35:38;;;;;;;0.20;0.20;;;;;;;12.97;75.55;98477.13;5056564;28;20059;-58
2024/04/02 07:38:04;;;;;;;0.20;0.20;;;;;;;12.45;77.82;98478.41;5062189;28;20071;-58
2024/04/02 07:40:31;;;;;;;0.10;0.10;;;;;;;11.59;83.98;98480.06;5058961;28;20637;-58
2024/04/02 07:42:58;;;;;;;0.08;0.08;;;;;;;11.38;84.82;98480.03;5059912;28;20036;-58
2024/04/02 07:45:26;;;;;;;0.30;0.30;;;;;;;11.16;88.04;98480.25;5050842;28;20063;-58
2024/04/02 07:47:52;;;;;;;0.20;0.20;;;;;;;12.13;81.32;98482.25;5051524;28;20923;-58
2024/04/02 07:50:19;;;;;;;0.20;0.20;;;;;;;12.09;80.79;98487.34;5049658;28;20554;-57
2024/04/02 07:52:44;;;;;;;0.30;0.30;;;;;;;13.02;76.54;98501.31;5052619;28;20036;-58
2024/04/02 07:55:11;;;;;;;0.30;0.30;;;;;;;13.66;74.51;98505.03;5058194;28;20453;-58
2024/04/02 07:57:37;;;;;;;0.30;0.30;;;;;;;13.78;74.41;98507.38;5056755;28;20040;-58
2024/04/02 08:00:07;;;;;;;0.30;0.30;;;;;;;14.35;69.32;98511.22;5052765;28;20091;-58
2024/04/02 08:02:33;;;;;;;0.30;0.30;;;;;;;12.55;76.85;98518.69;5060502;28;20036;-58
2024/04/02 08:05:01;;;;;;;0.20;0.20;;;;;;;12.92;78.32;98522.88;5056074;28;20061;-57
2024/04/02 08:07:27;;;;;;;0.20;0.20;;;;;;;13.08;78.61;98524.44;5049917;28;20047;-58
2024/04/02 08:09:54;;;;;;;0.20;0.20;;;;;;;11.79;82.97;98522.22;5055669;28;20037;-57
2024/04/02 08:12:20;;;;;;;0.20;0.20;;;;;;;11.66;85.37;98518.19;5052534;28;20048;-58
2024/04/02 08:14:47;;;;;;;0.30;0.30;;;;;;;13.25;79.27;98531.34;5061957;28;20053;-58
2024/04/02 08:17:15;;;;;;;0.20;0.20;;;;;;;14.42;71.80;98552.09;5055204;28;20053;-58
2024/04/02 08:19:42;;;;;;;0.30;0.30;;;;;;;13.73;74.59;98547.81;5052646;28;20579;-58
2024/04/02 08:22:08;;;;;;;0.20;0.20;;;;;;;12.93;77.25;98546.03;5055557;28;20622;-58
2024/04/02 08:24:36;;;;;;;0.20;0.20;;;;;;;13.28;76.50;98547.78;5050186;28;20475;-58
2024/04/02 08:27:02;;;;;;;0.10;0.10;;;;;;;12.42;79.46;98548.81;5056401;28;20041;-58
2024/04/02 08:29:29;;;;;;;0.10;0.10;;;;;;;12.11;82.92;98546.16;5052135;28;20128;-58
2024/04/02 08:31:55;;;;;;;0.10;0.10;;;;;;;11.35;84.68;98558.34;5050399;28;20570;-57
2024/04/02 08:34:23;;;;;;;0.20;0.20;;;;;;;10.94;89.85;98552.84;5050754;28;20052;-58
2024/04/02 08:36:49;;;;;;;0.17;0.17;;;;;;;11.09;91.97;98560.16;5058574;28;20139;-57
2024/04/02 08:39:17;;;;;;;0.20;0.20;;;;;;;10.74;93.54;98561.59;5051517;28;20044;-57
2024/04/02 08:41:43;;;;;;;0.20;0.20;;;;;;;11.03;94.86;98558.50;5049384;28;20037;-58
2024/04/02 08:44:10;;;;;;;0.20;0.20;;;;;;;11.30;92.63;98561.00;5057831;28;20044;-58
2024/04/02 08:46:36;;;;;;;0.30;0.30;;;;;;;11.52;88.90;98566.19;5057195;28;20036;-58
2024/04/02 08:49:03;;;;;;;0.20;0.20;;;;;;;11.30;90.88;98566.38;5053805;28;20063;-58
2024/04/02 08:51:30;;;;;;;0.20;0.20;;;;;;;10.97;91.68;98567.59;5049733;28;20051;-58
2024/04/02 08:53:59;;;;;;;0.15;0.15;;;;;;;11.32;91.63;98555.41;5049790;28;20452;-57
2024/04/02 08:56:25;;;;;;;0.30;0.30;;;;;;;11.25;91.96;98554.84;5052460;28;20135;-58
2024/04/02 08:58:52;;;;;;;0.22;0.22;;;;;;;11.76;88.72;98554.97;5052662;28;20430;-58
2024/04/02 09:01:18;;;;;;;0.20;0.20;;;;;;;11.18;86.56;98561.25;5052604;28;20033;-57
2024/04/02 09:03:46;;;;;;;0.20;0.20;;;;;;;12.19;83.02;98561.75;5054433;28;20060;-58
2024/04/02 09:06:12;;;;;;;0.20;0.20;;;;;;;12.00;83.69;98555.28;5054489;28;20044;-57
2024/04/02 09:08:47;;;;;;;0.20;0.20;;;;;;;12.41;80.27;98563.34;5057927;28;20125;-58
2024/04/02 09:11:13;;;;;;;0.20;0.20;;;;;;;12.16;80.46;98564.97;5054980;28;20059;-58
2024/04/02 09:13:40;;;;;;;0.15;0.15;;;;;;;12.04;81.86;98562.53;5048308;28;20045;-58
2024/04/02 09:16:06;;;;;;;0.20;0.20;;;;;;;12.41;78.73;98569.53;5053086;28;20135;-58
2024/04/02 09:18:35;;;;;;;0.20;0.20;;;;;;;12.68;78.68;98581.84;5052415;28;20560;-58
2024/04/02 09:21:01;;;;;;;0.20;0.20;;;;;;;12.15;80.01;98584.81;5052634;28;20045;-58
2024/04/02 09:23:28;;;;;;;0.15;0.15;;;;;;;11.83;82.68;98585.88;5052892;28;20041;-58
2024/04/02 09:25:56;;;;;;;0.30;0.30;;;;;;;11.65;83.61;98591.72;5052400;28;20072;-58
2024/04/02 09:28:23;;;;;;;0.20;0.20;;;;;;;11.58;85.43;98593.84;5059504;28;20055;-58
2024/04/02 09:30:49;;;;;;;0.22;0.22;;;;;;;11.54;85.87;98587.41;5050895;28;20047;-58
2024/04/02 09:33:17;;;;;;;0.28;0.28;;;;;;;11.94;84.05;98588.59;5050334;28;20057;-58
2024/04/02 09:36:05;;;;;;;0.20;0.20;;;;;;;13.07;79.21;98573.94;5049446;28;20044;-59
2024/04/02 09:38:33;;;;;;;0.30;0.30;;;;;;;13.74;74.66;98577.16;5051217;28;20419;-58
2024/04/02 09:41:01;;;;;;;0.20;0.20;;;;;;;13.25;75.07;98580.59;5056175;28;20129;-58
2024/04/02 09:43:29;;;;;;;0.20;0.20;;;;;;;13.18;74.25;98593.56;5057861;28;20102;-58
2024/04/02 09:45:55;;;;;;;0.10;0.10;;;;;;;13.05;75.57;98581.47;5039542;28;20094;-58
2024/04/02 09:48:23;;;;;;;0.20;0.20;;;;;;;13.13;73.91;98591.69;5054290;28;20048;-58
2024/04/02 09:50:50;;;;;;;0.20;0.20;;;;;;;13.40;71.84;98585.13;5052197;28;20040;-58
2024/04/02 09:53:19;;;;;;;0.20;0.20;;;;;;;13.02;73.49;98587.41;5049211;28;20648;-58
2024/04/02 09:55:45;;;;;;;0.10;0.10;;;;;;;13.72;70.82;98586.59;5044367;28;20122;-58
2024/04/02 09:58:13;;;;;;;0.20;0.20;;;;;;;13.20;72.79;98593.25;5048317;28;20575;-58
2024/04/02 10:00:41;;;;;;;0.20;0.20;;;;;;;13.12;74.05;98594.63;5053777;28;20040;-58
2024/04/02 10:03:09;;;;;;;0.20;0.20;;;;;;;12.70;75.77;98595.81;5051860;28;20870;-58
2024/04/02 10:05:35;;;;;;;0.10;0.10;;;;;;;12.36;79.09;98600.97;5056340;28;20684;-58
2024/04/02 10:08:04;;;;;;;0.17;0.17;;;;;;;12.00;80.25;98592.88;5047962;28;20043;-58
2024/04/02 10:10:30;;;;;;;0.22;0.22;;;;;;;12.78;78.76;98597.97;5045722;28;20044;-58
2024/04/02 10:12:58;;;;;;;0.20;0.20;;;;;;;13.21;75.91;98595.69;5050066;28;20041;-60
2024/04/02 10:15:27;;;;;;;0.30;0.30;;;;;;;13.84;71.96;98597.81;5055699;28;20048;-58
2024/04/02 10:17:57;;;;;;;0.10;0.10;;;;;;;13.07;73.70;98603.53;5055097;28;20234;-58
2024/04/02 10:20:24;;;;;;;0.30;0.30;;;;;;;13.72;74.56;98600.06;5053745;28;20495;-59
2024/04/02 10:22:53;;;;;;;0.20;0.20;;;;;;;14.84;69.79;98593.78;5054311;28;20036;-59
2024/04/02 10:25:19;;;;;;;0.20;0.20;;;;;;;14.37;70.93;98597.97;5049677;28;20095;-58
2024/04/02 10:27:47;;;;;;;0.20;0.20;;;;;;;14.06;70.92;98600.13;5050049;28;20041;-58
2024/04/02 10:30:16;;;;;;;0.20;0.20;;;;;;;14.63;69.11;98613.97;5049250;28;20049;-60
2024/04/02 10:32:45;;;;;;;0.10;0.10;;;;;;;13.62;71.11;98600.91;5039783;28;20044;-58
2024/04/02 10:35:18;;;;;;;0.10;0.10;;;;;;;14.19;71.17;98610.25;5050932;28;20736;-59
2024/04/02 10:37:46;;;;;;;0.20;0.20;;;;;;;15.01;67.68;98614.94;5052918;28;20049;-59
2024/04/02 10:40:12;;;;;;;0.20;0.20;;;;;;;13.91;71.41;98609.09;5052438;28;20044;-57
2024/04/02 10:42:39;;;;;;;0.10;0.10;;;;;;;13.28;73.30;98606.16;5054572;28;20128;-58
2024/04/02 10:45:06;;;;;;;0.15;0.15;;;;;;;13.35;72.91;98609.38;5051771;28;20572;-59
2024/04/02 10:47:33;;;;;;;0.10;0.10;;;;;;;12.60;74.66;98607.38;5053593;28;20064;-58
2024/04/02 10:50:00;;;;;;;0.10;0.10;;;;;;;12.46;80.16;98628.66;5048757;28;20033;-58
2024/04/02 10:52:27;;;;;;;0.15;0.15;;;;;;;12.21;79.79;98613.31;5050938;28;21107;-58
2024/04/02 10:54:53;;;;;;;0.20;0.20;;;;;;;12.13;83.49;98623.78;5056213;28;20059;-58
2024/04/02 10:57:22;;;;;;;0.20;0.20;;;;;;;12.45;82.82;98615.47;5052705;28;20110;-58
2024/04/02 10:59:48;;;;;;;0.13;0.13;;;;;;;12.76;81.04;98612.75;5053246;28;20156;-58
2024/04/02 11:02:18;;;;;;;0.20;0.20;;;;;;;12.80;78.65;98606.56;5054364;28;20037;-59
2024/04/02 11:04:44;;;;;;;0.20;0.20;;;;;;;12.71;79.05;98617.06;5048316;28;20061;-58
2024/04/02 11:07:13;;;;;;;0.20;0.20;;;;;;;12.30;80.09;98614.41;5048071;28;20086;-57
2024/04/02 11:09:39;;;;;;;0.10;0.10;;;;;;;12.86;78.73;98623.50;5050491;28;20037;-57
2024/04/02 11:12:07;;;;;;;0.20;0.20;;;;;;;13.07;77.03;98616.97;5051636;28;20131;-57
2024/04/02 11:14:34;;;;;;;0.28;0.28;;;;;;;12.63;77.66;98617.63;5045259;28;20045;-58
2024/04/02 11:17:01;;;;;;;0.10;0.10;;;;;;;13.12;76.94;98635.78;5056093;28;20060;-58
2024/04/02 11:19:27;;;;;;;0.20;0.20;;;;;;;12.80;76.26;98638.00;5055825;28;20040;-59
2024/04/02 11:24:57;;;;;;;0.20;0.20;;;;;;;12.87;76.75;98633.16;5054267;28;20147;-58
2024/04/02 11:27:27;;;;;;;0.30;0.30;;;;;;;12.92;77.31;98630.47;5052681;28;20052;-57
2024/04/02 11:29:55;;;;;;;0.20;0.20;;;;;;;13.12;75.92;98651.94;5050510;28;20037;-58
2024/04/02 11:32:21;;;;;;;0.10;0.10;;;;;;;13.09;75.53;98671.31;5052697;28;20156;-58
2024/04/02 11:34:56;;;;;;;0.20;0.20;;;;;;;13.05;74.47;98656.00;5050611;28;20049;-58
2024/04/02 11:37:22;;;;;;;0.20;0.20;;;;;;;12.93;75.96;98648.25;5054669;28;20047;-58